Time;durP1;ratioP1;P1;durP2;ratioP2;P2;SDS_P1;SDS_P2;PMS_P1;PMS_P2;Temp;Humidity;BMP_temperature;BMP_pressure;BME280_temperature;BME280_humidity;BME280_pressure;Samples;Min_cycle;Max_cycle;Signal;HPM_P1;HPM_P2
2023/03/08 00:01:44;;;;;;;34.30;23.30;;;;;;;1.21;100.00;96298.59;110198;1243;59757;-68
2023/03/08 00:04:14;;;;;;;31.10;20.10;;;;;;;1.21;100.00;96299.46;110101;1244;71744;-68
2023/03/08 00:06:43;;;;;;;33.50;21.80;;;;;;;1.22;100.00;96301.98;110168;1243;69119;-69
2023/03/08 00:09:13;;;;;;;31.10;19.90;;;;;;;1.23;100.00;96298.52;110131;1241;68728;-68
2023/03/08 00:11:42;;;;;;;30.50;20.20;;;;;;;1.24;100.00;96292.25;110130;1243;59709;-69
2023/03/08 00:14:12;;;;;;;27.60;18.70;;;;;;;1.24;100.00;96294.98;110196;1243;59715;-68
2023/03/08 00:16:41;;;;;;;30.00;19.30;;;;;;;1.27;100.00;96296.02;110167;1245;71288;-68
2023/03/08 00:19:11;;;;;;;39.80;24.50;;;;;;;1.30;100.00;96281.48;110215;1241;69073;-68
2023/03/08 00:21:41;;;;;;;38.90;22.40;;;;;;;1.34;100.00;96275.94;110164;1245;69153;-68
2023/03/08 00:24:15;;;;;;;52.70;32.20;;;;;;;1.38;100.00;96275.04;110181;1241;59689;-70
2023/03/08 00:26:45;;;;;;;40.40;25.30;;;;;;;1.35;100.00;96270.55;110245;1245;59725;-67
2023/03/08 00:29:15;;;;;;;32.10;21.70;;;;;;;1.36;100.00;96265.89;110243;1241;71360;-67
2023/03/08 00:31:44;;;;;;;;;;;;;;;1.38;100.00;96264.55;110091;1244;68510;-67
2023/03/08 00:34:16;;;;;;;47.10;30.50;;;;;;;1.36;100.00;96255.94;110123;1245;69302;-67
2023/03/08 00:36:46;;;;;;;41.20;26.40;;;;;;;1.35;100.00;96245.67;110164;1243;59756;-67
2023/03/08 00:39:19;;;;;;;35.90;25.20;;;;;;;1.34;100.00;96238.33;110181;1243;60057;-67
2023/03/08 00:41:49;;;;;;;31.30;20.30;;;;;;;1.34;100.00;96232.32;110175;1242;71403;-67
2023/03/08 00:44:18;;;;;;;37.10;24.10;;;;;;;1.35;100.00;96231.78;110108;1245;68473;-67
2023/03/08 00:46:48;;;;;;;35.30;22.40;;;;;;;1.36;100.00;96236.36;110164;1245;69321;-67
2023/03/08 00:49:19;;;;;;;39.30;27.60;;;;;;;1.36;100.00;96236.34;110133;1241;59683;-66
2023/03/08 00:51:48;;;;;;;;;;;;;;;1.36;100.00;96231.02;110193;1243;59682;-67
2023/03/08 00:54:19;;;;;;;;;;;;;;;1.36;100.00;96234.25;110170;1241;72329;-67
2023/03/08 00:56:49;;;;;;;31.90;20.90;;;;;;;1.38;100.00;96231.60;110185;1245;68267;-67
2023/03/08 00:59:19;;;;;;;;;;;;;;;1.39;100.00;96221.57;110128;1241;68542;-68
2023/03/08 01:01:49;;;;;;;26.50;17.80;;;;;;;1.42;100.00;96225.52;110126;1245;59760;-69
2023/03/08 01:04:20;;;;;;;;;;;;;;;1.47;100.00;96232.94;110185;1244;59660;-68
2023/03/08 01:06:50;;;;;;;26.70;18.30;;;;;;;1.52;100.00;96223.77;110198;1244;71487;-67
2023/03/08 01:09:19;;;;;;;27.10;17.10;;;;;;;1.57;100.00;96216.83;110129;1245;69249;-68
2023/03/08 01:11:49;;;;;;;27.20;17.90;;;;;;;1.61;100.00;96211.95;110124;1241;69826;-67
2023/03/08 01:14:20;;;;;;;26.30;15.90;;;;;;;1.69;100.00;96214.91;109591;1241;702620;-67
2023/03/08 01:16:52;;;;;;;35.40;20.10;;;;;;;1.76;100.00;96205.61;109907;1248;59669;-67
2023/03/08 01:19:22;;;;;;;28.80;18.90;;;;;;;1.84;100.00;96201.05;110106;1241;71864;-67
2023/03/08 01:21:52;;;;;;;28.90;17.30;;;;;;;1.89;100.00;96206.58;110127;1241;69029;-67
2023/03/08 01:24:22;;;;;;;30.80;19.60;;;;;;;1.94;100.00;96206.27;110099;1245;68532;-66
2023/03/08 01:26:54;;;;;;;34.00;22.90;;;;;;;1.97;100.00;96210.20;110135;1245;59725;-67
2023/03/08 01:29:26;;;;;;;36.70;23.30;;;;;;;1.97;100.00;96209.39;110152;1242;59673;-67
2023/03/08 01:31:59;;;;;;;31.10;18.70;;;;;;;1.95;100.00;96207.77;110043;1245;71355;-67
2023/03/08 01:34:29;;;;;;;28.00;19.70;;;;;;;1.96;100.00;96201.89;110146;1243;67771;-67
2023/03/08 01:36:59;;;;;;;31.70;20.60;;;;;;;1.98;100.00;96199.34;110133;1252;69313;-67
2023/03/08 01:39:31;;;;;;;28.50;18.90;;;;;;;2.00;100.00;96186.38;110110;1245;60068;-67
2023/03/08 01:42:06;;;;;;;26.20;18.20;;;;;;;2.00;100.00;96190.98;110142;1244;59681;-67
2023/03/08 01:45:00;;;;;;;22.60;16.10;;;;;;;2.01;100.00;96195.03;110148;1246;70313;-67
2023/03/08 01:47:37;;;;;;;23.40;14.90;;;;;;;2.04;100.00;96188.89;110151;1246;69234;-67
2023/03/08 01:50:20;;;;;;;29.40;17.80;;;;;;;2.07;100.00;96189.57;110159;1244;69301;-67
2023/03/08 01:52:54;;;;;;;24.50;16.10;;;;;;;2.10;100.00;96194.70;110172;1241;59681;-67
2023/03/08 01:55:27;;;;;;;22.70;16.90;;;;;;;2.12;100.00;96199.75;110173;1245;59663;-67
2023/03/08 01:57:59;;;;;;;25.60;18.60;;;;;;;2.14;100.00;96201.86;110117;1241;71227;-67
2023/03/08 02:00:30;;;;;;;24.80;16.50;;;;;;;2.17;100.00;96203.92;110133;1245;69246;-67
2023/03/08 02:03:03;;;;;;;;;;;;;;;2.20;100.00;96199.82;110155;1245;69142;-67
2023/03/08 02:05:35;;;;;;;19.80;14.20;;;;;;;2.23;100.00;96198.27;110075;1245;59670;-67
2023/03/08 02:08:17;;;;;;;24.90;15.40;;;;;;;2.25;100.00;96195.54;110162;1244;59745;-67
2023/03/08 02:10:49;;;;;;;23.60;16.40;;;;;;;2.29;100.00;96193.92;110195;1241;71635;-67
2023/03/08 02:13:21;;;;;;;23.20;14.80;;;;;;;2.34;100.00;96192.98;110172;1243;68987;-67
2023/03/08 02:15:54;;;;;;;22.70;14.20;;;;;;;2.37;100.00;96194.31;110159;1243;68459;-67
2023/03/08 02:18:27;;;;;;;21.20;14.10;;;;;;;2.40;100.00;96192.41;110101;1241;59804;-67
2023/03/08 02:21:00;;;;;;;22.30;14.50;;;;;;;2.44;100.00;96193.20;110181;1241;59630;-67
2023/03/08 02:23:31;;;;;;;20.70;14.40;;;;;;;2.47;100.00;96196.64;110190;1241;70563;-67
2023/03/08 02:26:05;;;;;;;20.70;14.20;;;;;;;2.51;100.00;96195.36;110072;1241;68561;-67
2023/03/08 02:28:39;;;;;;;22.60;14.80;;;;;;;2.55;100.00;96187.75;110152;1246;68400;-67
2023/03/08 02:31:13;;;;;;;23.00;16.10;;;;;;;2.58;100.00;96187.59;110183;1244;59751;-67
2023/03/08 02:33:44;;;;;;;22.20;14.10;;;;;;;2.60;100.00;96196.08;110203;1243;59704;-67
2023/03/08 02:36:17;;;;;;;21.90;14.10;;;;;;;2.60;100.00;96196.38;110148;1245;71305;-67
2023/03/08 02:38:51;;;;;;;22.40;15.00;;;;;;;2.63;100.00;96191.73;110136;1252;68059;-67
2023/03/08 02:41:23;;;;;;;24.10;17.10;;;;;;;2.64;100.00;96183.23;110141;1246;69116;-67
2023/03/08 02:43:53;;;;;;;27.20;20.40;;;;;;;2.65;100.00;96185.92;110148;1243;59763;-67
2023/03/08 02:46:23;;;;;;;;;;;;;;;2.65;100.00;96181.61;110063;1245;59665;-67
2023/03/08 02:48:53;;;;;;;;;;;;;;;2.65;100.00;96170.81;110170;1243;70679;-67
2023/03/08 02:51:25;;;;;;;23.60;16.70;;;;;;;2.61;100.00;96175.01;110164;1241;69123;-67
2023/03/08 02:53:55;;;;;;;28.80;20.90;;;;;;;2.56;100.00;96178.08;110177;1245;67500;-69
2023/03/08 02:56:27;;;;;;;30.40;19.90;;;;;;;2.53;100.00;96181.67;110121;1245;59687;-67
2023/03/08 02:58:56;;;;;;;25.50;19.00;;;;;;;2.52;100.00;96187.04;110203;1241;59702;-69
2023/03/08 03:01:26;;;;;;;25.00;18.60;;;;;;;2.53;100.00;96187.16;110155;1244;71901;-67
2023/03/08 03:03:56;;;;;;;26.50;18.90;;;;;;;2.53;100.00;96187.35;110156;1241;69379;-68
2023/03/08 03:06:26;;;;;;;26.60;18.80;;;;;;;2.51;100.00;96193.44;110176;1241;68554;-69
2023/03/08 03:08:58;;;;;;;27.40;18.90;;;;;;;2.51;100.00;96185.58;110211;1245;59757;-67
2023/03/08 03:11:29;;;;;;;25.50;17.10;;;;;;;2.50;100.00;96198.33;110135;1245;59697;-67
2023/03/08 03:14:01;;;;;;;22.90;16.70;;;;;;;2.51;100.00;96189.05;110161;1246;71349;-67
2023/03/08 03:16:35;;;;;;;25.10;17.70;;;;;;;2.51;100.00;96187.44;110120;1244;69654;-67
2023/03/08 03:19:06;;;;;;;24.60;17.20;;;;;;;2.52;100.00;96191.85;110158;1241;69282;-67
2023/03/08 03:21:39;;;;;;;22.00;16.70;;;;;;;2.52;100.00;96187.24;110188;1245;59660;-67
2023/03/08 03:24:09;;;;;;;22.40;16.60;;;;;;;2.53;100.00;96190.96;110074;1245;59740;-67
2023/03/08 03:26:54;;;;;;;26.80;17.90;;;;;;;2.53;100.00;96186.77;110154;1244;71502;-67
2023/03/08 03:29:25;;;;;;;23.10;16.40;;;;;;;2.55;100.00;96188.25;110149;1245;68484;-68
2023/03/08 03:32:01;;;;;;;23.50;15.80;;;;;;;2.55;100.00;96198.72;110104;1245;69586;-67
2023/03/08 03:34:31;;;;;;;26.00;17.80;;;;;;;2.55;100.00;96196.16;110098;1245;59734;-67
2023/03/08 03:37:01;;;;;;;21.50;15.30;;;;;;;2.54;100.00;96196.23;110177;1241;59643;-67
2023/03/08 03:39:36;;;;;;;21.70;14.90;;;;;;;2.54;100.00;96202.42;110198;1245;70816;-67
2023/03/08 03:42:07;;;;;;;22.20;14.70;;;;;;;2.54;100.00;96210.31;110115;1241;69342;-67
2023/03/08 03:44:37;;;;;;;23.40;18.60;;;;;;;2.55;100.00;96211.16;110078;1245;68500;-67
2023/03/08 03:47:07;;;;;;;26.80;20.00;;;;;;;2.52;100.00;96208.56;110099;1245;59747;-67
2023/03/08 03:49:39;;;;;;;25.70;17.50;;;;;;;2.48;100.00;96206.56;110148;1241;59650;-67
2023/03/08 03:52:08;;;;;;;25.30;17.60;;;;;;;2.46;100.00;96209.30;110135;1243;71409;-68
2023/03/08 03:54:44;;;;;;;30.20;22.00;;;;;;;2.45;100.00;96217.41;110747;1243;69298;-67
2023/03/08 03:57:14;;;;;;;28.80;20.80;;;;;;;2.44;100.00;96216.42;111338;1245;69334;-66
2023/03/08 03:59:46;;;;;;;26.60;19.30;;;;;;;2.44;100.00;96217.29;111176;1242;58779;-67
2023/03/08 04:02:15;;;;;;;27.90;19.00;;;;;;;2.45;100.00;96218.77;110432;1244;59633;-66
2023/03/08 04:04:49;;;;;;;27.10;19.20;;;;;;;2.47;100.00;96219.67;110152;1245;71962;-67
2023/03/08 04:07:21;;;;;;;26.70;19.20;;;;;;;2.48;100.00;96217.92;110179;1243;70299;-66
2023/03/08 04:09:57;;;;;;;25.90;17.20;;;;;;;2.48;100.00;96222.71;110109;1245;69285;-67
2023/03/08 04:12:27;;;;;;;23.50;15.60;;;;;;;2.49;100.00;96212.31;110128;1245;59679;-67
2023/03/08 04:14:57;;;;;;;23.30;15.40;;;;;;;2.52;100.00;96209.41;110157;1245;59681;-67
2023/03/08 04:17:29;;;;;;;22.40;14.90;;;;;;;2.56;100.00;96208.29;110172;1245;71492;-66
2023/03/08 04:20:00;;;;;;;16.80;13.20;;;;;;;2.61;100.00;96209.08;110166;1243;69101;-66
2023/03/08 04:22:33;;;;;;;16.90;12.60;;;;;;;2.65;100.00;96202.98;110240;1245;69285;-67
2023/03/08 04:25:09;;;;;;;21.40;13.70;;;;;;;2.68;100.00;96203.80;110158;1243;59658;-67
2023/03/08 04:27:45;;;;;;;24.20;16.00;;;;;;;2.71;100.00;96206.57;110107;1243;59630;-67
2023/03/08 04:30:14;;;;;;;22.10;14.80;;;;;;;2.72;100.00;96204.59;110131;1244;71320;-67
2023/03/08 04:32:44;;;;;;;17.30;12.50;;;;;;;2.75;100.00;96214.04;110130;1241;69298;-67
2023/03/08 04:35:13;;;;;;;18.90;13.80;;;;;;;2.78;100.00;96214.56;110177;1244;68540;-67
2023/03/08 04:37:44;;;;;;;19.60;13.80;;;;;;;2.80;100.00;96223.03;110108;1241;59692;-67
2023/03/08 04:40:18;;;;;;;18.20;13.50;;;;;;;2.81;100.00;96228.83;110108;1245;59747;-67
2023/03/08 04:42:53;;;;;;;16.40;12.10;;;;;;;2.82;100.00;96231.33;110213;1243;71973;-67
2023/03/08 04:45:26;;;;;;;16.60;12.10;;;;;;;2.84;100.00;96231.26;110163;1241;69484;-67
2023/03/08 04:47:58;;;;;;;16.20;12.10;;;;;;;2.86;100.00;96230.29;110127;1244;69296;-67
2023/03/08 04:50:27;;;;;;;16.70;12.40;;;;;;;2.86;100.00;96227.84;109908;1245;59695;-67
2023/03/08 04:52:57;;;;;;;20.90;15.50;;;;;;;2.87;100.00;96224.52;110208;1241;59702;-67
2023/03/08 04:55:27;;;;;;;14.30;11.10;;;;;;;2.87;100.00;96223.84;110207;1241;71640;-67
2023/03/08 04:57:56;;;;;;;22.90;16.20;;;;;;;2.88;100.00;96227.41;110118;1243;68461;-67
2023/03/08 05:00:26;;;;;;;;;;;;;;;2.86;100.00;96234.23;110115;1245;69117;-67
2023/03/08 05:02:55;;;;;;;33.00;21.40;;;;;;;2.82;100.00;96238.06;110126;1245;59744;-67
2023/03/08 05:05:25;;;;;;;29.50;21.20;;;;;;;2.79;100.00;96241.89;110139;1244;59676;-67
2023/03/08 05:07:54;;;;;;;28.10;21.30;;;;;;;2.76;100.00;96244.42;110165;1243;71522;-67
2023/03/08 05:10:23;;;;;;;25.30;19.10;;;;;;;2.74;100.00;96240.42;110162;1245;69249;-67
2023/03/08 05:12:52;;;;;;;28.00;19.70;;;;;;;2.74;100.00;96241.45;110157;1245;69085;-67
2023/03/08 05:15:25;;;;;;;32.70;22.20;;;;;;;2.75;100.00;96242.80;110152;1241;59679;-67
2023/03/08 05:17:56;;;;;;;26.40;19.20;;;;;;;2.78;100.00;96246.40;110154;1241;60094;-67
2023/03/08 05:20:26;;;;;;;24.80;17.00;;;;;;;2.80;100.00;96248.84;110128;1245;71991;-67
2023/03/08 05:22:56;;;;;;;22.30;15.70;;;;;;;2.84;100.00;96254.11;110100;1245;69753;-67
2023/03/08 05:25:42;;;;;;;24.00;16.80;;;;;;;2.88;100.00;96252.54;110119;1245;69929;-67
2023/03/08 05:28:14;;;;;;;27.10;18.00;;;;;;;2.90;100.00;96255.63;110092;1244;59713;-67
2023/03/08 05:30:44;;;;;;;28.60;21.00;;;;;;;2.94;100.00;96260.75;110145;1244;59679;-67
2023/03/08 05:33:16;;;;;;;32.60;23.20;;;;;;;2.95;100.00;96264.98;110175;1241;71327;-68
2023/03/08 05:35:52;;;;;;;37.70;25.00;;;;;;;2.97;100.00;96269.69;110127;1245;68235;-67
2023/03/08 05:38:22;;;;;;;36.50;24.70;;;;;;;2.98;100.00;96282.00;109977;1242;68274;-67
2023/03/08 05:40:52;;;;;;;46.70;32.60;;;;;;;2.93;100.00;96288.15;110081;1245;59699;-68
2023/03/08 05:43:21;;;;;;;42.50;29.80;;;;;;;2.81;100.00;96286.84;110067;1245;59682;-67
2023/03/08 05:46:01;;;;;;;33.00;26.40;;;;;;;2.79;100.00;96293.50;110204;1245;70664;-67
2023/03/08 05:48:33;;;;;;;40.20;27.70;;;;;;;2.78;100.00;96294.73;110175;1245;69855;-69
2023/03/08 05:51:11;;;;;;;38.80;27.50;;;;;;;2.77;100.00;96286.70;110121;1245;69311;-67
2023/03/08 05:53:41;;;;;;;42.30;29.10;;;;;;;2.78;100.00;96294.74;110056;1244;59714;-66
2023/03/08 05:56:15;;;;;;;37.50;24.80;;;;;;;2.79;100.00;96290.39;110152;1244;59656;-68
2023/03/08 05:58:51;;;;;;;30.80;22.40;;;;;;;2.83;100.00;96292.41;110140;1243;71942;-67
2023/03/08 06:01:23;;;;;;;34.30;24.60;;;;;;;2.87;100.00;96293.33;110111;1245;67451;-68
2023/03/08 06:03:56;;;;;;;39.20;27.10;;;;;;;2.92;100.00;96282.39;110133;1246;69258;-67
2023/03/08 06:06:27;;;;;;;34.50;24.60;;;;;;;2.92;100.00;96267.95;110124;1245;59744;-67
2023/03/08 06:08:59;;;;;;;33.80;22.80;;;;;;;2.95;100.00;96269.31;110165;1243;59699;-67
2023/03/08 06:11:30;;;;;;;30.60;20.50;;;;;;;3.02;100.00;96282.08;110141;1245;70833;-67
2023/03/08 06:14:00;;;;;;;34.80;25.00;;;;;;;3.11;100.00;96285.00;110155;1243;69785;-67
2023/03/08 06:16:31;;;;;;;36.00;24.70;;;;;;;3.21;100.00;96279.77;110138;1241;69283;-67
2023/03/08 06:19:02;;;;;;;33.00;23.00;;;;;;;3.30;100.00;96278.50;110108;1245;59763;-67
2023/03/08 06:21:31;;;;;;;47.90;34.60;;;;;;;3.41;100.00;96270.62;110118;1241;59790;-67
2023/03/08 06:24:02;;;;;;;42.00;31.10;;;;;;;3.50;100.00;96279.55;110115;1244;70423;-67
2023/03/08 06:26:32;;;;;;;52.40;36.50;;;;;;;3.57;100.00;96282.49;110123;1244;69453;-67
2023/03/08 06:29:01;;;;;;;37.50;26.40;;;;;;;3.64;100.00;96289.54;110156;1244;69804;-67
2023/03/08 06:31:30;;;;;;;37.40;27.60;;;;;;;3.74;100.00;96286.09;110175;1243;59700;-67
2023/03/08 06:34:00;;;;;;;36.90;28.90;;;;;;;3.85;100.00;96286.80;110176;1252;59672;-67
2023/03/08 06:36:29;;;;;;;35.00;25.50;;;;;;;3.98;100.00;96289.02;110132;1245;71386;-67
2023/03/08 06:38:59;;;;;;;29.00;21.40;;;;;;;4.09;100.00;96285.26;110173;1245;69829;-67
2023/03/08 06:41:29;;;;;;;;;;;;;;;4.19;100.00;96285.77;110143;1246;68879;-67
2023/03/08 06:43:58;;;;;;;20.70;15.20;;;;;;;4.28;100.00;96286.21;110175;1245;59650;-68
2023/03/08 06:46:27;;;;;;;23.20;16.10;;;;;;;4.38;100.00;96291.42;110127;1245;59682;-67
2023/03/08 06:48:58;;;;;;;22.90;18.90;;;;;;;4.46;100.00;96291.77;110234;1252;71507;-67
2023/03/08 06:51:28;;;;;;;43.30;27.90;;;;;;;4.53;100.00;96296.64;110140;1248;68727;-68
2023/03/08 06:53:56;;;;;;;26.40;17.80;;;;;;;4.56;100.00;96299.02;110225;1245;69323;-67
2023/03/08 06:56:27;;;;;;;23.20;16.50;;;;;;;4.64;100.00;96297.64;110241;1245;59695;-68
2023/03/08 06:58:56;;;;;;;20.90;15.30;;;;;;;4.73;100.00;96299.64;110158;1251;59700;-67
2023/03/08 07:01:24;;;;;;;21.60;16.80;;;;;;;4.84;100.00;96295.14;110150;1246;71955;-66
2023/03/08 07:03:53;;;;;;;23.00;18.50;;;;;;;4.92;100.00;96300.25;110145;1247;69055;-66
2023/03/08 07:06:22;;;;;;;30.60;21.60;;;;;;;4.98;100.00;96297.77;110105;1245;68157;-67
2023/03/08 07:08:51;;;;;;;28.00;22.40;;;;;;;5.02;100.00;96300.41;110159;1244;59718;-67
2023/03/08 07:11:20;;;;;;;30.30;21.60;;;;;;;5.01;100.00;96314.35;110172;1243;59693;-67
2023/03/08 07:13:49;;;;;;;28.80;21.10;;;;;;;4.99;100.00;96312.05;110136;1244;70656;-67
2023/03/08 07:16:18;;;;;;;24.70;17.60;;;;;;;5.03;100.00;96318.16;110148;1243;68581;-67
2023/03/08 07:18:47;;;;;;;25.80;19.00;;;;;;;5.09;100.00;96316.02;110176;1245;69855;-67
2023/03/08 07:21:16;;;;;;;22.40;17.10;;;;;;;5.13;100.00;96316.10;110121;1246;59678;-67
2023/03/08 07:23:46;;;;;;;23.50;16.90;;;;;;;5.21;100.00;96323.01;110133;1245;59682;-67
2023/03/08 07:26:15;;;;;;;20.70;17.50;;;;;;;5.31;100.00;96331.66;110137;1250;71413;-67
2023/03/08 07:28:49;;;;;;;20.20;14.90;;;;;;;5.40;100.00;96335.86;110125;1242;68559;-67
2023/03/08 07:31:17;;;;;;;21.10;15.00;;;;;;;5.49;100.00;96342.66;110117;1249;69272;-67
2023/03/08 07:33:47;;;;;;;18.80;15.30;;;;;;;5.57;100.00;96346.91;110153;1250;59786;-67
2023/03/08 07:36:16;;;;;;;18.00;14.30;;;;;;;5.66;100.00;96347.52;110139;1246;59698;-67
2023/03/08 07:38:46;;;;;;;18.80;15.00;;;;;;;5.73;100.00;96347.36;110131;1245;72060;-68
2023/03/08 07:41:16;;;;;;;;;;;;;;;5.77;100.00;96338.42;110201;1241;69237;-68
2023/03/08 07:43:45;;;;;;;20.80;14.80;;;;;;;5.82;100.00;96337.77;110189;1244;68482;-68
2023/03/08 07:46:18;;;;;;;30.70;20.60;;;;;;;5.83;100.00;96340.08;110088;1245;59751;-65
2023/03/08 07:48:47;;;;;;;22.20;16.70;;;;;;;5.86;100.00;96347.30;110174;1245;59696;-67
2023/03/08 07:51:16;;;;;;;20.00;15.70;;;;;;;5.90;100.00;96355.88;110116;1243;71758;-68
2023/03/08 07:53:45;;;;;;;19.10;14.70;;;;;;;5.99;100.00;96358.54;110150;1243;69667;-68
2023/03/08 07:56:14;;;;;;;17.30;12.60;;;;;;;6.04;99.79;96363.86;110158;1247;68528;-67
2023/03/08 07:58:44;;;;;;;19.50;13.30;;;;;;;6.17;98.19;96368.52;110152;1246;60041;-68
2023/03/08 08:01:14;;;;;;;16.90;12.90;;;;;;;6.27;95.81;96373.52;110190;1245;59631;-66
2023/03/08 08:03:43;;;;;;;15.30;11.10;;;;;;;6.42;95.33;96371.89;110182;1241;70630;-68
2023/03/08 08:06:12;;;;;;;15.10;12.50;;;;;;;6.58;94.31;96374.70;110156;1241;69355;-68
2023/03/08 08:08:41;;;;;;;15.50;11.30;;;;;;;6.73;94.06;96374.30;110109;1245;71074;-68
2023/03/08 08:11:15;;;;;;;13.60;11.00;;;;;;;6.74;90.44;96373.70;110092;1243;59744;-66
2023/03/08 08:13:45;;;;;;;17.50;13.10;;;;;;;6.78;91.17;96371.98;110105;1252;59675;-66
2023/03/08 08:16:15;;;;;;;;;;;;;;;6.86;91.39;96370.06;110131;1243;71225;-68
2023/03/08 08:18:45;;;;;;;18.70;14.50;;;;;;;6.85;91.53;96368.55;110114;1243;68452;-66
2023/03/08 08:21:15;;;;;;;18.10;14.90;;;;;;;6.93;91.92;96370.19;110125;1246;70157;-66
2023/03/08 08:23:44;;;;;;;18.80;13.10;;;;;;;6.96;91.38;96371.17;110140;1246;59714;-66
2023/03/08 08:26:19;;;;;;;17.90;14.00;;;;;;;7.01;91.26;96367.69;110213;1241;59637;-67
2023/03/08 08:28:51;;;;;;;19.00;14.40;;;;;;;7.08;91.21;96375.29;110109;1241;72162;-67
2023/03/08 08:31:22;;;;;;;14.70;12.20;;;;;;;7.18;88.69;96376.80;110153;1244;68372;-67
2023/03/08 08:33:51;;;;;;;15.40;11.70;;;;;;;7.32;89.64;96385.11;110152;1243;69567;-68
2023/03/08 08:36:20;;;;;;;16.10;11.40;;;;;;;7.50;88.78;96385.64;110120;1245;59701;-68
2023/03/08 08:38:49;;;;;;;15.90;11.20;;;;;;;7.56;86.12;96376.12;110141;1243;59630;-67
2023/03/08 08:41:21;;;;;;;13.40;10.30;;;;;;;7.72;87.12;96373.38;110166;1241;71340;-68
2023/03/08 08:43:50;;;;;;;12.60;9.70;;;;;;;7.91;87.88;96376.52;110169;1246;69074;-68
2023/03/08 08:46:19;;;;;;;15.50;11.80;;;;;;;8.10;86.03;96366.37;110175;1243;69866;-68
2023/03/08 08:48:47;;;;;;;12.50;11.00;;;;;;;8.22;84.36;96362.81;110132;1241;59693;-68
2023/03/08 08:51:16;;;;;;;14.60;11.20;;;;;;;8.38;82.96;96356.89;110146;1252;60177;-68
2023/03/08 08:53:45;;;;;;;13.00;10.70;;;;;;;8.56;83.36;96359.04;110144;1245;71353;-68
2023/03/08 08:56:17;;;;;;;10.90;9.00;;;;;;;8.75;81.23;96358.20;110152;1245;69217;-68
2023/03/08 08:59:02;;;;;;;13.20;10.50;;;;;;;8.88;78.19;96361.13;110089;1245;68293;-67
2023/03/08 09:01:33;;;;;;;15.50;9.40;;;;;;;8.61;77.24;96355.87;110141;1244;59746;-68
2023/03/08 09:04:02;;;;;;;12.40;9.60;;;;;;;8.53;78.30;96357.27;110132;1244;59768;-69
2023/03/08 09:06:31;;;;;;;13.50;9.70;;;;;;;8.46;78.03;96352.92;110140;1244;71337;-69
2023/03/08 09:09:00;;;;;;;10.70;9.00;;;;;;;8.44;79.30;96359.19;110167;1251;69805;-67
2023/03/08 09:11:28;;;;;;;11.00;8.50;;;;;;;8.43;80.04;96362.94;110161;1245;69908;-67
2023/03/08 09:13:57;;;;;;;10.00;7.20;;;;;;;8.51;79.71;96363.86;110135;1244;59822;-67
2023/03/08 09:16:33;;;;;;;10.60;8.70;;;;;;;8.54;77.51;96370.87;110190;1243;59681;-67
2023/03/08 09:19:03;;;;;;;10.30;8.00;;;;;;;8.66;77.23;96375.83;110158;1245;71195;-67
2023/03/08 09:21:33;;;;;;;10.10;7.70;;;;;;;8.71;77.32;96376.25;110152;1246;69692;-67
2023/03/08 09:24:04;;;;;;;;;;;;;;;9.01;75.88;96381.81;110130;1245;69264;-67
2023/03/08 09:26:33;;;;;;;11.70;8.00;;;;;;;8.98;75.01;96378.73;110167;1244;59825;-68
2023/03/08 09:29:04;;;;;;;9.50;8.40;;;;;;;9.29;75.15;96378.20;110146;1244;59696;-68
2023/03/08 09:31:36;;;;;;;10.70;8.10;;;;;;;9.58;73.01;96375.64;110148;1241;71939;-68
2023/03/08 09:34:07;;;;;;;11.10;8.40;;;;;;;9.96;72.60;96380.51;110130;1242;69838;-68
2023/03/08 09:36:40;;;;;;;9.20;7.40;;;;;;;10.19;69.42;96374.72;110143;1241;69277;-67
2023/03/08 09:39:12;;;;;;;10.70;7.80;;;;;;;10.35;67.23;96376.77;110177;1244;59710;-68
2023/03/08 09:41:46;;;;;;;8.80;7.60;;;;;;;10.19;66.45;96364.77;110153;1243;59743;-68
2023/03/08 09:44:44;;;;;;;10.00;7.50;;;;;;;10.18;66.26;96361.01;110134;1243;71302;-68
2023/03/08 09:47:32;;;;;;;8.80;6.90;;;;;;;10.19;65.74;96361.13;110187;1243;67509;-69
2023/03/08 09:50:12;;;;;;;8.90;6.90;;;;;;;10.86;64.94;96353.36;110147;1246;68380;-68
2023/03/08 09:52:49;;;;;;;9.90;6.70;;;;;;;11.66;63.18;96343.77;110186;1244;59696;-68
2023/03/08 09:55:30;;;;;;;7.00;6.00;;;;;;;12.03;59.90;96337.85;110178;1241;59744;-68
2023/03/08 09:58:05;;;;;;;9.10;6.30;;;;;;;12.23;59.15;96346.09;110091;1241;72061;-67
2023/03/08 10:00:36;;;;;;;6.80;5.10;;;;;;;12.59;57.99;96347.44;110163;1244;69224;-68
2023/03/08 10:03:30;;;;;;;6.60;5.90;;;;;;;13.12;57.77;96348.38;110148;1243;69159;-68
2023/03/08 10:06:18;;;;;;;5.40;4.80;;;;;;;13.31;54.42;96350.63;110148;1246;59750;-68
2023/03/08 10:08:55;;;;;;;5.40;4.70;;;;;;;13.54;53.29;96353.06;110221;1245;59692;-67
2023/03/08 10:11:27;;;;;;;6.10;5.00;;;;;;;13.88;51.96;96354.68;110110;1244;71962;-67
2023/03/08 10:14:02;;;;;;;8.10;5.70;;;;;;;13.65;52.19;96351.91;110115;1241;68080;-68
2023/03/08 10:16:36;;;;;;;7.20;6.00;;;;;;;13.26;52.73;96352.48;110154;1245;69239;-68
2023/03/08 10:19:20;;;;;;;6.40;5.10;;;;;;;13.33;52.84;96354.27;110138;1245;59734;-69
2023/03/08 10:21:51;;;;;;;7.60;5.80;;;;;;;12.83;53.72;96351.04;110134;1244;59740;-67
2023/03/08 10:24:35;;;;;;;6.80;5.60;;;;;;;13.17;52.96;96357.13;110127;1241;71259;-67
2023/03/08 10:27:25;;;;;;;7.20;5.50;;;;;;;13.25;52.69;96358.77;110119;1243;69766;-68
2023/03/08 10:29:55;;;;;;;;;;;;;;;13.91;52.28;96347.33;110121;1244;69110;-68
2023/03/08 10:32:25;;;;;;;8.40;6.20;;;;;;;14.51;51.08;96346.16;110205;1243;59708;-67
2023/03/08 10:35:03;;;;;;;7.20;5.80;;;;;;;14.64;50.06;96337.10;110121;1244;59675;-68
2023/03/08 10:37:33;;;;;;;8.90;5.70;;;;;;;14.58;50.22;96326.66;110184;1244;71882;-66
2023/03/08 10:40:07;;;;;;;6.50;5.20;;;;;;;14.50;49.88;96331.90;110169;1245;69860;-67
2023/03/08 10:42:36;;;;;;;7.80;6.10;;;;;;;13.71;50.77;96332.56;110141;1245;69738;-67
2023/03/08 10:45:21;;;;;;;7.70;6.40;;;;;;;13.01;52.55;96331.92;110157;1241;59746;-67
2023/03/08 10:48:04;;;;;;;7.40;6.10;;;;;;;12.42;53.67;96333.14;110160;1245;59633;-67
2023/03/08 10:50:35;;;;;;;8.70;6.00;;;;;;;12.06;55.56;96331.05;110164;1243;71971;-67
2023/03/08 10:53:18;;;;;;;7.30;5.70;;;;;;;11.73;56.79;96331.79;110099;1243;69792;-67
2023/03/08 10:55:50;;;;;;;8.50;7.30;;;;;;;11.74;57.45;96328.91;110170;1245;69264;-69
2023/03/08 10:58:27;;;;;;;9.20;7.20;;;;;;;11.45;57.90;96328.95;110111;1244;59739;-67
2023/03/08 11:01:00;;;;;;;8.50;6.70;;;;;;;11.25;58.96;96324.21;110112;1242;59686;-69
2023/03/08 11:03:29;;;;;;;8.00;6.90;;;;;;;11.30;58.20;96321.85;110138;1244;71286;-68
2023/03/08 11:06:11;;;;;;;6.90;6.10;;;;;;;11.12;58.18;96319.98;110133;1244;69701;-68
2023/03/08 11:08:53;;;;;;;8.00;6.50;;;;;;;10.92;58.51;96323.77;110132;1248;70195;-68
2023/03/08 11:11:22;;;;;;;7.60;6.00;;;;;;;10.86;57.69;96316.85;110149;1244;59678;-68
2023/03/08 11:13:53;;;;;;;9.60;7.40;;;;;;;10.81;57.18;96319.52;110063;1245;60153;-68
2023/03/08 11:16:32;;;;;;;8.00;6.90;;;;;;;10.85;56.41;96314.65;110101;1244;71383;-68
2023/03/08 11:19:24;;;;;;;6.90;6.00;;;;;;;10.66;56.82;96315.47;110132;1241;69336;-68
2023/03/08 11:22:08;;;;;;;9.20;6.00;;;;;;;10.75;57.13;96309.98;110127;1241;69090;-69
2023/03/08 11:24:52;;;;;;;6.20;5.60;;;;;;;10.94;56.75;96317.64;110213;1241;59764;-68
2023/03/08 11:27:21;;;;;;;6.10;5.10;;;;;;;10.79;57.08;96302.86;110179;1245;60166;-68
2023/03/08 11:30:01;;;;;;;6.60;5.50;;;;;;;10.89;57.03;96303.83;110154;1243;71313;-68
2023/03/08 11:32:43;;;;;;;7.90;5.70;;;;;;;10.91;57.18;96300.52;110146;1244;69868;-68
2023/03/08 11:35:33;;;;;;;6.50;5.50;;;;;;;10.86;56.36;96301.79;110137;1241;68270;-68
2023/03/08 11:38:05;;;;;;;6.50;4.10;;;;;;;10.96;56.51;96302.27;110125;1244;59741;-68
2023/03/08 11:40:52;;;;;;;6.30;5.20;;;;;;;10.95;56.46;96300.52;110139;1241;59699;-68